Time;durP1;ratioP1;P1;durP2;ratioP2;P2;SDS_P1;SDS_P2;PMS_P1;PMS_P2;Temp;Humidity;BMP_temperature;BMP_pressure;BME280_temperature;BME280_humidity;BME280_pressure;Samples;Min_cycle;Max_cycle;Signal;HPM_P1;HPM_P2
2023/09/15 00:50:16;;;;;;;17.90;11.10;;;;;;;12.04;100.00;101910.72;5749326;23;21120;-76
2023/09/15 00:52:50;;;;;;;17.35;10.40;;;;;;;11.97;100.00;101909.78;5354430;23;20053;-72
2023/09/15 00:58:10;;;;;;;18.15;12.43;;;;;;;11.93;100.00;101911.16;4977057;23;20064;-72
2023/09/15 01:00:37;;;;;;;17.15;10.25;;;;;;;11.93;100.00;101911.16;4877607;29;20760;-72
2023/09/15 01:03:03;;;;;;;20.80;11.77;;;;;;;11.90;100.00;101914.19;4877424;29;20033;-71
2023/09/15 01:05:29;;;;;;;18.20;10.38;;;;;;;11.81;100.00;101908.84;4894248;29;20037;-72
2023/09/15 01:07:54;;;;;;;18.77;10.48;;;;;;;11.79;100.00;101904.72;4894498;29;20041;-72
2023/09/15 01:10:21;;;;;;;18.63;10.85;;;;;;;11.75;100.00;101904.22;4894628;29;20037;-71
2023/09/15 01:12:49;;;;;;;17.90;11.45;;;;;;;11.74;100.00;101902.56;4894429;29;20036;-71
2023/09/15 01:15:15;;;;;;;17.25;9.77;;;;;;;11.67;100.00;101898.94;4894482;29;20096;-71
2023/09/15 01:18:36;;;;;;;15.40;8.90;;;;;;;11.67;100.00;101892.78;4894253;29;20499;-71
2023/09/15 01:21:16;;;;;;;15.80;9.63;;;;;;;11.59;100.00;101891.00;4799819;29;20651;-71
2023/09/15 01:24:07;;;;;;;15.88;9.48;;;;;;;11.55;100.00;101890.53;4883666;29;20068;-71
2023/09/15 01:26:58;;;;;;;19.25;11.02;;;;;;;11.56;100.00;101888.69;4894232;29;20484;-71
2023/09/15 01:29:37;;;;;;;14.70;9.30;;;;;;;11.60;100.00;101896.13;4894238;29;20179;-72
2023/09/15 01:32:07;;;;;;;15.35;9.15;;;;;;;11.51;100.00;101883.03;4876572;29;20036;-71
2023/09/15 01:34:34;;;;;;;15.63;9.50;;;;;;;11.48;100.00;101878.06;4894107;29;20032;-71
2023/09/15 01:37:00;;;;;;;17.92;10.90;;;;;;;11.47;100.00;101884.38;4876911;29;20064;-72
2023/09/15 01:39:30;;;;;;;22.38;12.48;;;;;;;11.45;100.00;101865.88;4893656;29;20075;-71
2023/09/15 01:41:56;;;;;;;17.83;10.23;;;;;;;11.46;100.00;101888.06;4894175;29;20448;-72
2023/09/15 01:44:21;;;;;;;18.25;10.82;;;;;;;11.41;100.00;101872.56;4894051;29;20087;-71
2023/09/15 01:46:46;;;;;;;18.00;10.80;;;;;;;11.36;100.00;101878.44;4894007;29;20041;-71
2023/09/15 01:49:12;;;;;;;20.30;10.07;;;;;;;11.42;100.00;101882.25;4894019;29;20052;-71
2023/09/15 01:51:37;;;;;;;17.25;10.30;;;;;;;11.34;100.00;101867.13;4893810;29;20052;-71
2023/09/15 01:54:04;;;;;;;18.00;10.35;;;;;;;11.39;100.00;101877.25;4861593;29;20033;-71
2023/09/15 01:56:29;;;;;;;18.58;11.02;;;;;;;11.36;100.00;101873.09;4893832;29;20183;-72
2023/09/15 01:58:55;;;;;;;19.27;10.68;;;;;;;11.31;100.00;101870.13;4893759;29;20030;-71
2023/09/15 02:01:20;;;;;;;16.95;10.63;;;;;;;11.33;100.00;101878.78;4893715;29;20068;-71
2023/09/15 02:03:46;;;;;;;18.02;10.23;;;;;;;11.34;100.00;101869.78;4893951;29;20036;-71
2023/09/15 02:06:16;;;;;;;18.13;10.40;;;;;;;11.30;100.00;101868.47;4893790;29;20138;-72
2023/09/15 02:08:45;;;;;;;16.50;9.80;;;;;;;11.34;100.00;101866.25;4893854;29;20059;-72
2023/09/15 02:11:11;;;;;;;17.27;10.02;;;;;;;11.30;100.00;101868.47;4893742;29;20586;-72
2023/09/15 02:13:38;;;;;;;17.17;9.57;;;;;;;11.32;100.00;101865.63;4893676;29;20029;-72
2023/09/15 02:16:03;;;;;;;16.88;10.25;;;;;;;11.27;100.00;101868.00;4893741;29;20033;-72
2023/09/15 02:18:29;;;;;;;18.33;9.27;;;;;;;11.31;100.00;101869.28;4893678;29;20040;-71
2023/09/15 02:20:55;;;;;;;16.13;9.88;;;;;;;11.31;100.00;101870.13;4893844;29;20452;-72
2023/09/15 02:23:21;;;;;;;17.15;9.93;;;;;;;11.26;100.00;101861.81;4893591;29;20035;-71
2023/09/15 02:25:47;;;;;;;18.70;10.32;;;;;;;11.23;100.00;101867.50;4893784;29;20601;-71
2023/09/15 02:28:13;;;;;;;16.42;9.25;;;;;;;11.23;100.00;101864.84;4893589;29;20065;-71
2023/09/15 02:30:38;;;;;;;18.08;9.63;;;;;;;11.23;100.00;101875.50;4893776;29;20384;-72
2023/09/15 02:33:04;;;;;;;17.10;9.43;;;;;;;11.13;100.00;101867.75;4876914;29;20503;-71
2023/09/15 02:35:29;;;;;;;17.63;9.73;;;;;;;11.16;100.00;101867.38;4893723;29;20028;-72
2023/09/15 02:37:55;;;;;;;17.45;9.82;;;;;;;11.13;100.00;101851.72;4893720;29;20033;-72
2023/09/15 02:40:23;;;;;;;18.98;9.95;;;;;;;11.10;100.00;101860.06;4893640;29;20043;-71
2023/09/15 02:42:49;;;;;;;19.75;11.23;;;;;;;11.06;100.00;101855.28;4893618;29;20064;-72
2023/09/15 02:45:14;;;;;;;18.48;9.82;;;;;;;11.04;100.00;101855.44;4896706;29;20064;-72
2023/09/15 02:47:40;;;;;;;18.42;10.45;;;;;;;11.06;100.00;101849.94;4897129;29;20037;-72
2023/09/15 02:50:06;;;;;;;18.00;10.48;;;;;;;11.04;100.00;101851.94;4897034;29;20036;-71
2023/09/15 02:52:31;;;;;;;18.17;10.25;;;;;;;11.02;100.00;101853.94;4896959;29;20040;-72
2023/09/15 02:54:56;;;;;;;18.15;10.95;;;;;;;11.02;100.00;101851.28;4897295;29;20127;-71
2023/09/15 02:57:22;;;;;;;18.88;11.52;;;;;;;10.97;100.00;101855.28;4896769;29;20196;-72
2023/09/15 02:59:47;;;;;;;17.83;10.20;;;;;;;10.89;100.00;101847.31;4896872;29;20036;-71
2023/09/15 03:02:14;;;;;;;19.50;9.90;;;;;;;10.91;100.00;101847.97;4896813;29;20472;-72
2023/09/15 03:04:40;;;;;;;18.95;10.15;;;;;;;10.96;100.00;101844.81;4896825;29;20499;-71
2023/09/15 03:07:06;;;;;;;30.02;10.07;;;;;;;10.96;100.00;101858.97;4896754;29;20071;-71
2023/09/15 03:09:32;;;;;;;20.45;9.85;;;;;;;10.94;100.00;101849.47;4896738;29;20063;-71
2023/09/15 03:11:58;;;;;;;17.92;9.57;;;;;;;10.89;100.00;101843.81;4879649;29;20123;-71
2023/09/15 03:14:23;;;;;;;21.45;12.07;;;;;;;10.83;100.00;101842.69;4896442;29;20031;-71
2023/09/15 03:16:49;;;;;;;17.73;9.43;;;;;;;10.82;100.00;101849.03;4879702;29;20055;-71
2023/09/15 03:19:14;;;;;;;20.25;11.35;;;;;;;10.81;100.00;101844.69;4896811;29;20053;-71
2023/09/15 03:21:40;;;;;;;17.55;9.85;;;;;;;10.82;100.00;101846.38;4880091;29;20488;-71
2023/09/15 03:24:07;;;;;;;19.08;10.55;;;;;;;10.74;100.00;101838.38;4896422;29;20044;-72
2023/09/15 03:26:33;;;;;;;17.90;9.63;;;;;;;10.75;100.00;101838.22;4896664;29;20032;-72
2023/09/15 03:28:58;;;;;;;17.90;10.23;;;;;;;10.78;100.00;101842.38;4896268;29;20060;-71
2023/09/15 03:31:23;;;;;;;18.33;9.98;;;;;;;10.75;100.00;101842.72;4879480;29;20123;-71
2023/09/15 03:33:49;;;;;;;19.73;10.23;;;;;;;10.75;100.00;101840.06;4896213;29;20044;-72
2023/09/15 03:36:14;;;;;;;20.30;10.80;;;;;;;10.76;100.00;101831.03;4896258;29;20123;-72
2023/09/15 03:38:40;;;;;;;21.30;10.30;;;;;;;10.68;100.00;101829.22;4895930;29;20144;-72
2023/09/15 03:41:06;;;;;;;18.30;9.65;;;;;;;10.74;100.00;101833.91;4896083;29;20029;-71
2023/09/15 03:43:32;;;;;;;18.05;9.70;;;;;;;10.79;100.00;101836.03;4896104;29;20040;-72
2023/09/15 03:45:58;;;;;;;17.35;10.90;;;;;;;10.79;100.00;101824.53;4895952;29;20120;-72
2023/09/15 03:48:24;;;;;;;18.35;11.07;;;;;;;10.82;100.00;101822.34;4879328;29;20071;-72
2023/09/15 03:50:50;;;;;;;18.58;9.38;;;;;;;10.84;100.00;101828.31;4895887;29;20059;-72
2023/09/15 03:53:17;;;;;;;16.98;10.20;;;;;;;10.86;100.00;101838.84;4895947;29;20048;-71
2023/09/15 03:55:42;;;;;;;17.48;9.27;;;;;;;10.82;100.00;101824.16;4895240;29;20032;-72
2023/09/15 03:58:08;;;;;;;18.25;10.23;;;;;;;10.80;100.00;101828.88;4895634;29;20057;-72
2023/09/15 04:00:33;;;;;;;18.13;9.98;;;;;;;10.74;100.00;101820.56;4895663;29;20437;-71
2023/09/15 04:02:58;;;;;;;17.38;9.15;;;;;;;10.73;100.00;101824.22;4895635;29;20035;-72
2023/09/15 04:05:24;;;;;;;14.32;8.75;;;;;;;10.68;100.00;101815.06;4894292;29;20033;-71
2023/09/15 04:07:49;;;;;;;16.73;9.60;;;;;;;10.57;100.00;101805.63;4895481;29;20039;-72
2023/09/15 04:10:14;;;;;;;17.38;9.68;;;;;;;10.68;100.00;101823.06;4895610;29;20025;-71
2023/09/15 04:12:42;;;;;;;18.52;10.57;;;;;;;10.66;100.00;101817.94;4895472;29;20033;-71
2023/09/15 04:15:09;;;;;;;16.10;8.48;;;;;;;10.64;100.00;101821.78;4895440;29;20129;-72
2023/09/15 04:17:34;;;;;;;17.55;10.27;;;;;;;10.60;100.00;101823.94;4895221;29;20036;-71
2023/09/15 04:20:00;;;;;;;16.75;9.32;;;;;;;10.53;100.00;101818.47;4895415;29;20080;-71
2023/09/15 04:22:27;;;;;;;17.25;9.32;;;;;;;10.56;100.00;101819.13;4878351;29;20040;-72
2023/09/15 04:24:52;;;;;;;15.63;9.07;;;;;;;10.46;100.00;101812.16;4895414;29;20032;-72
2023/09/15 04:27:18;;;;;;;15.65;8.23;;;;;;;10.40;100.00;101815.53;4895271;29;20040;-72
2023/09/15 04:29:54;;;;;;;19.60;10.32;;;;;;;10.41;100.00;101806.50;4895103;29;20024;-72
2023/09/15 04:32:20;;;;;;;16.05;9.85;;;;;;;10.33;100.00;101795.88;4895351;29;20035;-71
2023/09/15 04:34:45;;;;;;;16.58;10.05;;;;;;;10.38;100.00;101809.53;4895406;29;20025;-72
2023/09/15 04:37:10;;;;;;;23.48;10.60;;;;;;;10.45;100.00;101815.84;4895180;29;20033;-72
2023/09/15 04:39:36;;;;;;;19.75;10.02;;;;;;;10.46;100.00;101822.00;4894867;29;20043;-71
2023/09/15 04:42:01;;;;;;;16.88;9.13;;;;;;;10.40;100.00;101814.66;4895076;29;20052;-71
2023/09/15 04:44:26;;;;;;;17.35;9.73;;;;;;;10.43;100.00;101806.34;4894854;29;20036;-72
2023/09/15 04:46:52;;;;;;;17.67;9.18;;;;;;;10.39;100.00;101807.69;4894857;29;20601;-72
2023/09/15 04:49:17;;;;;;;16.05;8.98;;;;;;;10.41;100.00;101806.50;4877971;29;20369;-72
2023/09/15 04:51:43;;;;;;;13.77;7.95;;;;;;;10.38;100.00;101812.19;4894782;29;20036;-72
2023/09/15 04:54:09;;;;;;;16.45;8.77;;;;;;;10.37;100.00;101807.84;4894828;29;20036;-72
2023/09/15 04:56:34;;;;;;;15.88;8.40;;;;;;;10.40;100.00;101814.66;4894418;29;20055;-72
2023/09/15 04:58:59;;;;;;;18.88;10.02;;;;;;;10.41;100.00;101809.19;4894614;29;20107;-72
2023/09/15 05:01:25;;;;;;;15.60;8.48;;;;;;;10.41;100.00;101813.69;4894620;29;20523;-71
2023/09/15 05:03:50;;;;;;;15.45;8.52;;;;;;;10.40;100.00;101820.00;4894846;29;20088;-72
2023/09/15 05:06:15;;;;;;;14.50;8.70;;;;;;;10.35;100.00;101819.69;4876900;29;20072;-72
2023/09/15 05:08:43;;;;;;;16.75;8.55;;;;;;;10.36;100.00;101826.69;4877309;29;20112;-72
2023/09/15 05:11:09;;;;;;;19.27;9.90;;;;;;;10.32;100.00;101815.53;4893723;29;20045;-72
2023/09/15 05:13:34;;;;;;;17.33;9.25;;;;;;;10.29;100.00;101811.38;4892426;29;20151;-72
2023/09/15 05:16:02;;;;;;;20.60;8.85;;;;;;;10.40;100.00;101825.34;4893716;29;20476;-72
2023/09/15 05:18:28;;;;;;;17.67;8.18;;;;;;;10.40;100.00;101834.19;4893866;29;20092;-72
2023/09/15 05:20:53;;;;;;;19.23;9.35;;;;;;;10.40;100.00;101833.34;4894000;29;20036;-72
2023/09/15 05:23:19;;;;;;;16.25;8.77;;;;;;;10.40;100.00;101830.66;4894599;29;20398;-72
2023/09/15 05:25:44;;;;;;;20.65;9.45;;;;;;;10.43;100.00;101838.34;4894141;29;20088;-72
2023/09/15 05:28:09;;;;;;;17.77;9.15;;;;;;;10.40;100.00;101828.00;4877115;29;20147;-72
2023/09/15 05:30:35;;;;;;;20.30;8.80;;;;;;;10.43;100.00;101830.34;4893048;29;20033;-72
2023/09/15 05:33:00;;;;;;;17.73;8.88;;;;;;;10.46;100.00;101838.00;4893561;29;20539;-71
2023/09/15 05:35:26;;;;;;;17.75;8.75;;;;;;;10.44;100.00;101842.66;4894047;29;20043;-72
2023/09/15 05:37:51;;;;;;;17.10;8.73;;;;;;;10.44;100.00;101824.00;4894297;29;20033;-71
2023/09/15 05:40:16;;;;;;;20.10;9.00;;;;;;;10.48;100.00;101833.34;4892684;29;20484;-72
2023/09/15 05:42:42;;;;;;;17.45;9.05;;;;;;;10.53;100.00;101842.47;4893956;29;20036;-71
2023/09/15 05:45:08;;;;;;;18.88;9.23;;;;;;;10.61;100.00;101835.44;4894353;29;20047;-72
2023/09/15 05:47:33;;;;;;;17.05;9.30;;;;;;;10.59;100.00;101834.78;4894264;29;20096;-71
2023/09/15 05:50:02;;;;;;;20.23;9.57;;;;;;;10.53;100.00;101826.47;4894519;29;20388;-71
2023/09/15 05:52:27;;;;;;;16.52;9.45;;;;;;;10.58;100.00;101825.94;4893931;29;20551;-72
2023/09/15 05:54:52;;;;;;;19.77;9.70;;;;;;;10.61;100.00;101822.94;4877287;29;20067;-71
2023/09/15 05:57:18;;;;;;;18.58;9.63;;;;;;;10.78;100.00;101836.22;4893827;29;20393;-72
2023/09/15 05:59:43;;;;;;;22.50;10.70;;;;;;;10.81;100.00;101842.03;4894000;29;20756;-72
2023/09/15 06:02:08;;;;;;;17.33;9.20;;;;;;;10.88;100.00;101831.50;4893846;29;20043;-72
2023/09/15 06:04:34;;;;;;;16.02;8.77;;;;;;;10.90;100.00;101835.66;4894020;29;20033;-72
2023/09/15 06:07:00;;;;;;;16.45;10.35;;;;;;;10.94;100.00;101830.78;4892677;29;20436;-72
2023/09/15 06:09:25;;;;;;;16.48;8.63;;;;;;;11.00;100.00;101834.59;4894130;29;20025;-72
2023/09/15 06:11:50;;;;;;;16.08;8.93;;;;;;;11.01;100.00;101825.59;4894084;29;20345;-71
2023/09/15 06:14:16;;;;;;;20.10;9.90;;;;;;;11.14;100.00;101844.53;4893983;29;20096;-72
2023/09/15 06:16:41;;;;;;;18.27;9.93;;;;;;;11.23;100.00;101839.97;4893897;29;20047;-72
2023/09/15 06:19:06;;;;;;;22.38;9.93;;;;;;;11.22;100.00;101833.81;4896909;29;20143;-71
2023/09/15 06:21:32;;;;;;;17.13;8.90;;;;;;;11.36;100.00;101840.22;4897530;29;20556;-72
2023/09/15 06:23:57;;;;;;;14.77;9.23;;;;;;;11.43;100.00;101843.84;4880608;29;20040;-72
2023/09/15 06:26:23;;;;;;;17.38;9.05;;;;;;;11.47;100.00;101847.81;4897427;29;20510;-72
2023/09/15 06:28:49;;;;;;;17.35;10.05;;;;;;;11.55;100.00;101853.13;4897411;29;20033;-72
2023/09/15 06:31:15;;;;;;;20.30;9.95;;;;;;;11.58;100.00;101839.41;4897447;29;20084;-72
2023/09/15 06:33:41;;;;;;;21.25;10.95;;;;;;;11.60;100.00;101831.19;4880644;29;20108;-72
2023/09/15 06:36:06;;;;;;;22.08;8.88;;;;;;;11.78;100.00;101838.91;4865372;29;20489;-72
2023/09/15 06:38:32;;;;;;;19.52;10.63;;;;;;;11.82;100.00;101835.69;4897264;29;20558;-72
2023/09/15 06:40:57;;;;;;;17.63;9.13;;;;;;;11.85;100.00;101838.00;4881075;29;20076;-72
2023/09/15 06:43:23;;;;;;;19.92;10.15;;;;;;;11.99;100.00;101828.38;4897323;29;20024;-72
2023/09/15 06:45:48;;;;;;;19.35;8.80;;;;;;;12.03;100.00;101831.53;4897055;29;20036;-72
2023/09/15 06:48:14;;;;;;;19.27;9.93;;;;;;;12.11;100.00;101834.13;4897524;29;20028;-72
2023/09/15 06:50:39;;;;;;;19.33;9.52;;;;;;;12.15;100.00;101816.69;4897030;29;20512;-72
2023/09/15 06:53:04;;;;;;;16.95;8.65;;;;;;;12.19;100.00;101815.31;4880222;29;20044;-72
2023/09/15 06:55:30;;;;;;;20.73;9.25;;;;;;;12.28;100.00;101824.88;4896786;29;20037;-72
2023/09/15 06:57:56;;;;;;;16.35;10.07;;;;;;;12.34;100.00;101825.16;4896890;29;20060;-72
2023/09/15 07:00:21;;;;;;;17.35;8.80;;;;;;;12.38;100.00;101815.78;4896854;29;20033;-72
2023/09/15 07:02:46;;;;;;;18.63;9.43;;;;;;;12.40;100.00;101816.44;4896725;29;20024;-72
2023/09/15 07:05:12;;;;;;;17.48;8.60;;;;;;;12.44;100.00;101821.22;4879894;29;20831;-73
2023/09/15 07:07:37;;;;;;;17.55;7.82;;;;;;;12.55;100.00;101827.97;4880219;29;20127;-73
2023/09/15 07:10:04;;;;;;;17.38;8.88;;;;;;;12.60;100.00;101817.53;4896975;29;20036;-72
2023/09/15 07:12:29;;;;;;;14.75;8.88;;;;;;;12.65;100.00;101820.47;4880379;29;20032;-75
2023/09/15 07:14:54;;;;;;;17.67;9.20;;;;;;;12.75;100.00;101822.03;4896437;29;20895;-75
2023/09/15 07:17:20;;;;;;;15.38;7.47;;;;;;;12.79;100.00;101815.28;4879064;29;20060;-75
2023/09/15 07:19:46;;;;;;;16.67;9.00;;;;;;;12.80;100.00;101808.91;4895721;29;20080;-75
2023/09/15 07:22:12;;;;;;;16.65;7.82;;;;;;;12.94;100.00;101818.75;4896740;29;20459;-75
2023/09/15 07:24:41;;;;;;;17.08;9.35;;;;;;;13.01;100.00;101811.63;4895913;29;20152;-73
2023/09/15 07:27:09;;;;;;;13.18;7.60;;;;;;;13.06;100.00;101814.56;4896539;29;20044;-75
2023/09/15 07:29:35;;;;;;;15.60;8.63;;;;;;;13.13;100.00;101810.09;4895942;29;20029;-75
2023/09/15 07:32:01;;;;;;;15.40;7.32;;;;;;;13.18;100.00;101806.00;4865645;29;20028;-73
2023/09/15 07:34:26;;;;;;;14.90;7.43;;;;;;;13.23;100.00;101799.09;4888702;29;20036;-72
2023/09/15 07:36:52;;;;;;;15.45;7.85;;;;;;;13.36;100.00;101804.59;4887883;29;20032;-72
2023/09/15 07:39:18;;;;;;;19.70;8.75;;;;;;;13.41;100.00;101801.34;4888634;29;20921;-75
2023/09/15 07:41:43;;;;;;;14.73;7.85;;;;;;;13.50;100.00;101794.00;4888214;29;20024;-72
2023/09/15 07:44:09;;;;;;;14.60;8.80;;;;;;;13.56;100.00;101796.72;4888433;29;20020;-72
2023/09/15 07:46:36;;;;;;;14.52;8.80;;;;;;;13.63;100.00;101804.03;4856322;29;20036;-73
2023/09/15 07:49:02;;;;;;;15.80;7.63;;;;;;;13.63;100.00;101795.97;4887718;29;20036;-76
2023/09/15 07:51:27;;;;;;;17.67;8.48;;;;;;;13.74;100.00;101798.13;4888075;29;20071;-77
2023/09/15 07:53:54;;;;;;;13.60;7.90;;;;;;;13.81;100.00;101799.00;4887860;29;20119;-78
2023/09/15 07:56:21;;;;;;;13.77;7.88;;;;;;;13.86;100.00;101790.34;4888430;29;20029;-75
2023/09/15 07:58:46;;;;;;;16.98;7.85;;;;;;;14.02;100.00;101804.31;4887793;29;20060;-75
2023/09/15 08:01:12;;;;;;;11.43;7.22;;;;;;;14.10;100.00;101794.47;4888202;29;20087;-74
2023/09/15 08:03:38;;;;;;;13.43;7.82;;;;;;;14.19;100.00;101796.78;4888454;29;20084;-73
2023/09/15 08:06:05;;;;;;;12.48;7.80;;;;;;;14.29;100.00;101785.69;4888153;29;21027;-72
2023/09/15 08:08:31;;;;;;;14.00;8.15;;;;;;;14.39;100.00;101791.53;4888407;29;20032;-72
2023/09/15 08:10:56;;;;;;;13.75;7.10;;;;;;;14.48;100.00;101798.38;4887232;29;20036;-74
2023/09/15 08:13:22;;;;;;;12.05;7.25;;;;;;;14.58;100.00;101797.22;4887511;29;20031;-73
2023/09/15 08:15:51;;;;;;;19.02;7.70;;;;;;;14.67;100.00;101796.84;4887499;29;20032;-78
2023/09/15 08:18:17;;;;;;;13.48;8.52;;;;;;;14.77;100.00;101795.63;4888035;29;20111;-75
2023/09/15 08:20:42;;;;;;;11.07;7.55;;;;;;;14.90;100.00;101793.81;4887242;29;20027;-75
2023/09/15 08:23:08;;;;;;;17.52;7.88;;;;;;;14.99;100.00;101796.34;4896072;29;20157;-75
2023/09/15 08:25:33;;;;;;;14.13;7.25;;;;;;;15.06;100.00;101795.34;4894310;29;20044;-74
2023/09/15 08:28:00;;;;;;;12.88;7.00;;;;;;;15.16;100.00;101789.53;4893920;29;20040;-74
2023/09/15 08:30:25;;;;;;;11.25;7.05;;;;;;;15.30;100.00;101795.75;4895168;29;20107;-74
2023/09/15 08:32:50;;;;;;;13.90;7.72;;;;;;;15.38;100.00;101795.59;4895704;29;20035;-73
2023/09/15 08:35:16;;;;;;;11.68;7.00;;;;;;;15.45;100.00;101798.28;4894777;29;20464;-74
2023/09/15 08:37:41;;;;;;;13.05;7.18;;;;;;;15.48;100.00;101804.09;4894193;29;20452;-74
2023/09/15 08:40:07;;;;;;;14.38;7.53;;;;;;;15.56;100.00;101800.34;4893878;29;20032;-74
2023/09/15 08:42:33;;;;;;;12.90;7.50;;;;;;;15.64;100.00;101802.00;4894014;29;20079;-74
2023/09/15 08:45:01;;;;;;;17.15;8.10;;;;;;;15.67;100.00;101799.75;4895133;29;20059;-75
2023/09/15 08:47:31;;;;;;;14.65;7.13;;;;;;;15.70;100.00;101790.47;4895270;29;20068;-75
2023/09/15 08:49:57;;;;;;;14.77;8.45;;;;;;;15.81;100.00;101789.00;4895146;29;20024;-74
2023/09/15 08:52:22;;;;;;;13.10;7.72;;;;;;;15.91;100.00;101781.34;4878141;29;20099;-75
2023/09/15 08:54:51;;;;;;;12.00;7.38;;;;;;;16.09;100.00;101786.88;4878251;29;20044;-74
2023/09/15 08:57:17;;;;;;;13.57;7.63;;;;;;;16.21;100.00;101781.66;4895013;29;20469;-75
2023/09/15 08:59:43;;;;;;;11.52;7.05;;;;;;;16.41;100.00;101776.25;4894461;29;20119;-74
2023/09/15 09:02:11;;;;;;;10.98;6.15;;;;;;;16.49;100.00;101780.56;4877748;29;20059;-74
2023/09/15 09:04:37;;;;;;;16.50;7.90;;;;;;;16.58;100.00;101774.72;4894348;29;20092;-74
2023/09/15 09:07:03;;;;;;;14.65;7.55;;;;;;;16.64;100.00;101781.13;4894738;29;20037;-75
2023/09/15 09:09:30;;;;;;;11.80;7.15;;;;;;;16.67;100.00;101771.78;4878169;29;20032;-74
2023/09/15 09:11:56;;;;;;;15.38;8.85;;;;;;;16.75;100.00;101777.75;4892901;29;20092;-75
2023/09/15 09:14:22;;;;;;;13.13;6.78;;;;;;;16.77;100.00;101775.69;4894634;29;20040;-75
2023/09/15 09:16:48;;;;;;;17.05;9.10;;;;;;;16.90;100.00;101776.66;4894674;29;20024;-75
2023/09/15 09:19:13;;;;;;;12.70;7.40;;;;;;;17.03;100.00;101772.03;4894535;29;20104;-74
2023/09/15 09:21:39;;;;;;;14.80;6.78;;;;;;;17.19;100.00;101776.06;4894550;29;20055;-74
2023/09/15 09:24:06;;;;;;;15.05;8.30;;;;;;;17.28;100.00;101768.53;4877650;29;20036;-75
2023/09/15 09:26:31;;;;;;;12.27;6.80;;;;;;;17.39;100.00;101773.22;4894230;29;20044;-74
2023/09/15 09:28:57;;;;;;;11.82;6.45;;;;;;;17.51;100.00;101760.69;4894291;29;20391;-74
2023/09/15 09:31:27;;;;;;;12.32;7.32;;;;;;;17.72;100.00;101761.34;4894327;29;20077;-75
2023/09/15 09:33:54;;;;;;;12.55;7.50;;;;;;;17.80;100.00;101765.66;4877302;29;20108;-74
2023/09/15 09:36:20;;;;;;;17.45;8.48;;;;;;;17.87;100.00;101763.72;4894411;29;20036;-74
2023/09/15 09:38:47;;;;;;;14.07;7.60;;;;;;;18.04;100.00;101763.94;4894298;29;20044;-74
2023/09/15 09:41:14;;;;;;;11.82;7.05;;;;;;;18.09;100.00;101759.53;4894120;29;20476;-74
2023/09/15 09:43:42;;;;;;;12.30;7.28;;;;;;;18.06;99.63;101759.16;4861942;29;20040;-74
2023/09/15 09:46:08;;;;;;;12.27;6.47;;;;;;;18.10;99.53;101763.03;4876998;29;20155;-74
2023/09/15 09:48:35;;;;;;;14.85;8.15;;;;;;;18.13;100.00;101755.34;4894134;29;20029;-74
2023/09/15 09:51:02;;;;;;;11.80;6.93;;;;;;;18.21;100.00;101756.91;4892928;29;20035;-74
2023/09/15 09:53:29;;;;;;;12.30;6.57;;;;;;;18.24;100.00;101753.75;4893933;29;20153;-75
2023/09/15 09:55:55;;;;;;;12.75;6.22;;;;;;;18.39;99.29;101756.91;4893873;29;20037;-72
2023/09/15 09:58:24;;;;;;;12.27;6.25;;;;;;;18.50;99.59;101752.63;4894074;29;20061;-74
2023/09/15 10:00:51;;;;;;;9.38;6.00;;;;;;;18.69;100.00;101763.38;4894332;29;20028;-75
2023/09/15 10:03:17;;;;;;;13.43;6.68;;;;;;;18.79;98.80;101763.72;4894121;29;20040;-74
2023/09/15 10:05:43;;;;;;;12.20;6.32;;;;;;;18.73;96.27;101757.31;4894009;29;20037;-74
2023/09/15 10:08:09;;;;;;;13.43;6.88;;;;;;;18.88;95.51;101764.19;4893943;29;20477;-75
2023/09/15 10:10:40;;;;;;;11.50;7.10;;;;;;;18.93;96.16;101754.34;4894161;29;20036;-74
2023/09/15 10:13:10;;;;;;;12.30;6.70;;;;;;;19.08;96.14;101756.63;4893972;29;20073;-75
2023/09/15 10:15:35;;;;;;;12.30;6.95;;;;;;;19.09;93.74;101749.34;4894062;29;20127;-75
2023/09/15 10:18:02;;;;;;;15.18;7.53;;;;;;;19.10;96.88;101738.31;4894077;29;20127;-74
2023/09/15 10:20:28;;;;;;;13.57;6.88;;;;;;;19.16;96.94;101733.84;4893946;29;20025;-74
2023/09/15 10:22:54;;;;;;;7.93;5.28;;;;;;;19.30;95.30;101731.75;4894125;29;20036;-75
2023/09/15 10:25:21;;;;;;;14.23;6.18;;;;;;;19.44;94.15;101739.41;4877101;29;20108;-75
2023/09/15 10:27:46;;;;;;;11.27;6.45;;;;;;;19.51;93.11;101728.47;4893964;29;20040;-74
2023/09/15 10:30:12;;;;;;;9.77;6.32;;;;;;;19.61;91.74;101734.09;4893629;29;20036;-74
2023/09/15 10:32:41;;;;;;;12.77;6.20;;;;;;;19.65;90.96;101729.06;4893624;29;20040;-74
2023/09/15 10:35:07;;;;;;;10.50;5.50;;;;;;;19.71;91.07;101722.72;4893744;29;20135;-74
2023/09/15 10:37:36;;;;;;;8.80;5.63;;;;;;;19.76;92.75;101717.44;4893840;29;20059;-74
2023/09/15 10:40:02;;;;;;;9.52;5.65;;;;;;;19.80;92.68;101710.47;4876939;29;20460;-74
2023/09/15 10:42:28;;;;;;;9.57;5.43;;;;;;;19.83;90.44;101718.13;4893765;29;20071;-74
2023/09/15 10:44:53;;;;;;;13.60;7.28;;;;;;;19.86;89.41;101709.53;4892415;29;20033;-74
2023/09/15 10:47:20;;;;;;;12.00;5.68;;;;;;;19.91;88.19;101714.22;4893823;29;20392;-74
2023/09/15 10:49:53;;;;;;;9.48;5.18;;;;;;;19.90;90.77;101699.84;4893403;29;20087;-74
2023/09/15 10:52:35;;;;;;;11.10;5.13;;;;;;;20.00;93.39;101701.16;4875984;29;20400;-74
2023/09/15 10:55:02;;;;;;;10.20;5.32;;;;;;;19.98;90.29;101693.25;4893248;29;20416;-74
2023/09/15 10:57:28;;;;;;;11.98;5.70;;;;;;;20.13;90.10;101700.88;4887099;29;20065;-75
2023/09/15 10:59:55;;;;;;;10.07;5.22;;;;;;;20.17;90.21;101693.91;4869276;29;20039;-79
2023/09/15 11:02:21;;;;;;;10.38;6.13;;;;;;;20.31;91.73;101697.19;4869601;29;20496;-80
2023/09/15 11:04:47;;;;;;;12.27;6.93;;;;;;;20.23;88.39;101687.56;4886127;29;20114;-77
2023/09/15 11:07:14;;;;;;;11.63;6.25;;;;;;;20.31;89.98;101694.47;4889628;29;20024;-73
2023/09/15 11:09:43;;;;;;;8.48;4.32;;;;;;;20.34;85.51;101685.84;4889548;29;20032;-75
2023/09/15 11:12:12;;;;;;;10.50;6.30;;;;;;;20.34;87.60;101683.97;4889870;29;20033;-80
2023/09/15 11:14:37;;;;;;;12.05;6.68;;;;;;;20.37;85.71;101685.38;4873083;29;20055;-80
2023/09/15 11:17:03;;;;;;;8.23;5.10;;;;;;;20.50;85.49;101685.06;4889546;29;20436;-72
2023/09/15 11:19:32;;;;;;;7.20;4.32;;;;;;;20.63;85.17;101675.84;4889171;29;20876;-74
2023/09/15 11:22:04;;;;;;;9.50;4.75;;;;;;;20.81;84.80;101676.72;4890137;29;20020;-72
2023/09/15 11:24:31;;;;;;;16.13;6.03;;;;;;;20.92;83.93;101678.53;4873252;29;20060;-75
2023/09/15 11:26:58;;;;;;;7.13;5.13;;;;;;;21.01;82.71;101677.03;4888481;29;20040;-78
2023/09/15 11:29:30;;;;;;;7.22;3.50;;;;;;;21.06;81.74;101673.59;4889262;29;20527;-76
2023/09/15 11:31:56;;;;;;;;;;;;;;;21.14;85.45;101673.19;4889218;29;20107;-74
2023/09/15 11:34:22;;;;;;;5.78;4.22;;;;;;;21.16;83.64;101674.56;4889043;29;20969;-74
2023/09/15 11:36:49;;;;;;;6.53;3.65;;;;;;;21.18;82.67;101671.63;4895507;29;20044;-75
2023/09/15 11:39:15;;;;;;;7.20;4.32;;;;;;;21.16;81.36;101673.75;4896304;29;20128;-76
2023/09/15 11:41:54;;;;;;;7.43;4.20;;;;;;;21.08;78.60;101666.84;4893986;29;20032;-73
2023/09/15 11:44:29;;;;;;;5.53;3.60;;;;;;;21.15;82.67;101664.81;4895901;29;20028;-74
2023/09/15 11:46:58;;;;;;;8.60;4.03;;;;;;;21.28;79.16;101668.25;4894630;29;20044;-74
2023/09/15 11:49:25;;;;;;;7.68;3.65;;;;;;;21.35;79.94;101661.59;4894213;29;20067;-73
2023/09/15 11:51:54;;;;;;;8.75;3.55;;;;;;;21.34;77.78;101672.69;4895503;29;20071;-73
2023/09/15 11:54:19;;;;;;;10.15;4.10;;;;;;;21.31;77.45;101665.84;4895999;29;20406;-73
2023/09/15 11:56:46;;;;;;;8.15;3.95;;;;;;;21.29;77.67;101662.56;4895307;29;20044;-74
2023/09/15 11:59:13;;;;;;;12.90;4.43;;;;;;;21.35;78.15;101660.75;4878081;29;20059;-73